Time;durP1;ratioP1;P1;durP2;ratioP2;P2;SDS_P1;SDS_P2;PMS_P1;PMS_P2;Temp;Humidity;BMP_temperature;BMP_pressure;BME280_temperature;BME280_humidity;BME280_pressure;Samples;Min_cycle;Max_cycle;Signal;HPM_P1;HPM_P2
2023/11/10 00:03:41;;;;;;;3.85;0.70;;;;;;;5.72;97.11;98692.22;10479803;28;20037;-77
2023/11/10 00:08:45;;;;;;;1.67;0.60;;;;;;;5.83;95.45;98686.78;10487656;28;20081;-77
2023/11/10 00:13:48;;;;;;;1.35;0.80;;;;;;;5.82;94.54;98694.94;10483434;28;20091;-77
2023/11/10 00:18:56;;;;;;;2.78;0.80;;;;;;;5.95;95.14;98695.53;10482545;28;20052;-78
2023/11/10 00:23:59;;;;;;;3.08;0.80;;;;;;;5.63;95.75;98691.22;10491420;28;20111;-78
2023/11/10 00:29:02;;;;;;;5.20;1.00;;;;;;;5.83;94.47;98702.78;10487009;28;20408;-77
2023/11/10 00:34:07;;;;;;;4.25;0.75;;;;;;;5.67;94.95;98699.78;10489161;28;20079;-77
2023/11/10 00:39:10;;;;;;;1.27;0.73;;;;;;;5.59;94.26;98699.59;10486098;28;20048;-78
2023/11/10 00:44:14;;;;;;;1.83;1.10;;;;;;;5.64;94.31;98705.38;10450675;28;20053;-78
2023/11/10 00:49:18;;;;;;;4.45;0.82;;;;;;;6.03;94.20;98713.50;10463507;28;20048;-78
2023/11/10 00:54:22;;;;;;;2.08;1.00;;;;;;;6.01;93.66;98716.31;10501988;28;20090;-78
2023/11/10 00:59:25;;;;;;;5.97;1.10;;;;;;;5.81;93.48;98714.56;10495402;28;20055;-78
2023/11/10 01:04:30;;;;;;;4.72;1.33;;;;;;;6.02;93.18;98699.34;10481029;28;20052;-78
2023/11/10 01:09:33;;;;;;;5.60;1.25;;;;;;;5.93;92.59;98686.84;10451970;28;20059;-77
2023/11/10 01:14:36;;;;;;;4.40;1.30;;;;;;;5.87;93.65;98684.69;10493260;28;20036;-77
2023/11/10 01:19:40;;;;;;;4.07;1.35;;;;;;;6.11;93.07;98687.00;10492865;28;20127;-77
2023/11/10 01:24:43;;;;;;;2.38;1.27;;;;;;;6.08;93.18;98680.13;10492247;28;20048;-77
2023/11/10 01:29:46;;;;;;;3.47;1.30;;;;;;;6.29;94.20;98676.53;10492564;28;20488;-78
2023/11/10 01:34:51;;;;;;;5.55;1.33;;;;;;;6.13;93.06;98675.22;10492135;28;20060;-76
2023/11/10 01:39:54;;;;;;;5.70;1.50;;;;;;;6.26;93.48;98664.31;10491249;28;20132;-76
2023/11/10 01:44:57;;;;;;;5.00;1.08;;;;;;;6.29;94.24;98655.19;10491562;28;20036;-77
2023/11/10 01:50:01;;;;;;;3.28;1.00;;;;;;;6.17;93.41;98647.31;10492108;28;20044;-77
2023/11/10 01:55:06;;;;;;;2.90;0.88;;;;;;;6.05;91.87;98653.75;10490415;28;20103;-77
2023/11/10 02:00:11;;;;;;;3.85;1.25;;;;;;;5.88;91.86;98643.75;10492090;28;20043;-77
2023/11/10 02:05:17;;;;;;;3.13;1.17;;;;;;;6.02;91.50;98645.19;10490502;28;20048;-77
2023/11/10 02:10:24;;;;;;;3.83;1.10;;;;;;;5.92;91.64;98637.16;10489058;28;20055;-77
2023/11/10 02:15:27;;;;;;;4.07;1.23;;;;;;;5.89;92.26;98640.94;10489618;28;20055;-78
2023/11/10 02:20:32;;;;;;;2.38;0.90;;;;;;;5.78;92.90;98627.75;10490165;28;20543;-77
2023/11/10 02:25:37;;;;;;;2.15;0.88;;;;;;;5.66;92.92;98643.00;10489857;28;20113;-78
2023/11/10 02:30:43;;;;;;;1.92;0.98;;;;;;;5.82;92.35;98641.66;10491683;28;20120;-79
2023/11/10 02:35:46;;;;;;;3.08;1.02;;;;;;;5.72;91.28;98639.78;10490982;28;20040;-77
2023/11/10 02:40:51;;;;;;;1.45;0.63;;;;;;;5.79;89.95;98625.91;10496380;28;20698;-75
2023/11/10 02:45:54;;;;;;;7.22;2.03;;;;;;;5.82;89.53;98626.50;10487853;28;20056;-76
2023/11/10 02:50:57;;;;;;;3.20;0.82;;;;;;;5.86;89.87;98625.22;10496367;28;20400;-77
2023/11/10 02:56:02;;;;;;;3.83;0.93;;;;;;;6.08;89.27;98617.97;10495530;28;20094;-77
2023/11/10 03:01:05;;;;;;;1.20;0.52;;;;;;;6.10;88.47;98605.38;10503159;28;20053;-78
2023/11/10 03:06:08;;;;;;;4.53;0.57;;;;;;;6.01;87.13;98601.72;10504444;28;20127;-78
2023/11/10 03:11:16;;;;;;;5.45;2.25;;;;;;;6.18;86.84;98594.84;10499740;28;20144;-78
2023/11/10 03:16:19;;;;;;;2.30;0.70;;;;;;;6.03;86.83;98588.22;10496540;28;20048;-78
2023/11/10 03:21:23;;;;;;;3.42;0.75;;;;;;;5.95;87.38;98588.91;10495535;28;20095;-79
2023/11/10 03:26:28;;;;;;;3.05;0.60;;;;;;;6.21;85.72;98594.56;10495328;28;20048;-79
2023/11/10 03:31:31;;;;;;;10.50;1.55;;;;;;;5.75;88.26;98604.03;10503013;28;20056;-78
2023/11/10 03:36:35;;;;;;;4.80;0.70;;;;;;;5.95;88.56;98594.25;10499809;28;20104;-78
2023/11/10 03:41:40;;;;;;;5.35;0.68;;;;;;;6.17;88.24;98582.47;10496404;28;20049;-77
2023/11/10 03:46:43;;;;;;;3.47;0.70;;;;;;;5.97;89.13;98578.13;10494083;28;20048;-77
2023/11/10 03:51:46;;;;;;;4.38;0.60;;;;;;;6.06;89.23;98575.50;10496354;28;20111;-77
2023/11/10 03:56:50;;;;;;;3.67;0.88;;;;;;;5.85;89.69;98572.94;10493795;28;20057;-77
2023/11/10 04:01:53;;;;;;;6.07;1.15;;;;;;;5.94;89.59;98566.75;10494326;28;20052;-77
2023/11/10 04:06:56;;;;;;;2.47;0.90;;;;;;;6.02;89.45;98574.06;10493840;28;20571;-75
2023/11/10 04:12:02;;;;;;;3.78;0.90;;;;;;;6.05;90.41;98568.47;10493502;28;20147;-76
2023/11/10 04:17:06;;;;;;;4.30;0.68;;;;;;;5.99;89.76;98565.53;10468710;28;20044;-77
2023/11/10 04:22:09;;;;;;;5.40;0.98;;;;;;;5.88;89.67;98567.31;10493846;28;20519;-77
2023/11/10 04:27:14;;;;;;;3.17;0.80;;;;;;;5.85;89.42;98572.09;10492812;28;20040;-76
2023/11/10 04:32:17;;;;;;;2.45;0.70;;;;;;;5.89;87.93;98570.81;10492208;28;20067;-77
2023/11/10 04:37:20;;;;;;;8.40;1.00;;;;;;;6.08;86.97;98568.16;10489527;28;20044;-77
2023/11/10 04:42:24;;;;;;;3.78;0.73;;;;;;;6.11;85.64;98567.88;10462163;28;20044;-77
2023/11/10 04:47:27;;;;;;;8.07;0.47;;;;;;;5.76;87.42;98576.44;10473377;28;20389;-76
2023/11/10 04:52:29;;;;;;;1.17;0.77;;;;;;;5.95;86.30;98571.13;10476110;28;20052;-78
2023/11/10 04:57:34;;;;;;;2.35;0.60;;;;;;;5.92;85.31;98578.53;10474781;28;20052;-77
2023/11/10 05:02:37;;;;;;;3.75;0.70;;;;;;;5.99;85.12;98584.19;10488231;28;20052;-78
2023/11/10 05:07:40;;;;;;;3.47;0.93;;;;;;;6.30;83.63;98576.88;10482288;28;20080;-78
2023/11/10 05:12:45;;;;;;;2.70;0.63;;;;;;;6.31;84.52;98582.09;10493582;28;20047;-77
2023/11/10 05:17:49;;;;;;;6.25;0.60;;;;;;;6.24;85.63;98575.63;10486348;28;20256;-78
2023/11/10 05:22:52;;;;;;;4.40;1.65;;;;;;;6.30;87.64;98580.38;10489904;28;20040;-78
2023/11/10 05:27:57;;;;;;;2.85;0.70;;;;;;;6.26;87.55;98570.16;10484284;28;20115;-78
2023/11/10 05:33:03;;;;;;;3.22;1.25;;;;;;;6.34;87.50;98570.28;10477923;28;20044;-77
2023/11/10 05:38:09;;;;;;;4.18;1.15;;;;;;;6.17;87.81;98569.16;10478742;28;20052;-77
2023/11/10 05:43:14;;;;;;;3.10;0.75;;;;;;;6.07;87.40;98579.81;10474828;28;20048;-77
2023/11/10 05:48:17;;;;;;;1.13;0.70;;;;;;;6.19;86.73;98564.53;10469678;28;20111;-77
2023/11/10 05:53:20;;;;;;;2.63;0.73;;;;;;;6.31;85.74;98576.75;10475560;28;20065;-76
2023/11/10 05:58:25;;;;;;;3.33;1.95;;;;;;;6.09;86.07;98574.38;10479967;28;20044;-77
2023/11/10 06:03:28;;;;;;;0.60;0.60;;;;;;;6.37;84.99;98584.19;10478692;28;20091;-77
2023/11/10 06:08:33;;;;;;;3.38;0.70;;;;;;;6.32;86.54;98582.91;10477088;28;20036;-77
2023/11/10 06:13:38;;;;;;;5.80;0.68;;;;;;;5.95;91.04;98589.78;10472282;28;20047;-77
2023/11/10 06:18:41;;;;;;;2.25;0.73;;;;;;;6.05;92.55;98600.44;10484143;28;20051;-77
2023/11/10 06:23:44;;;;;;;3.70;0.70;;;;;;;5.74;95.03;98599.69;10487974;28;20040;-77
2023/11/10 06:28:48;;;;;;;3.25;1.10;;;;;;;5.84;95.23;98597.03;10487255;28;20049;-77
2023/11/10 06:33:52;;;;;;;3.00;0.90;;;;;;;5.84;95.83;98608.56;10493097;28;20036;-77
2023/11/10 06:38:55;;;;;;;4.03;0.93;;;;;;;5.86;96.93;98600.41;10489890;28;20118;-77
2023/11/10 06:43:59;;;;;;;0.90;0.63;;;;;;;5.90;96.63;98600.00;10482093;28;20067;-77
2023/11/10 06:49:02;;;;;;;3.40;1.00;;;;;;;5.97;95.58;98610.94;10481306;28;20043;-77
2023/11/10 06:54:05;;;;;;;2.00;0.93;;;;;;;5.91;94.90;98609.69;10484216;28;20045;-77
2023/11/10 06:59:09;;;;;;;3.63;1.00;;;;;;;6.09;94.05;98606.34;10485991;28;20037;-77
2023/11/10 07:04:12;;;;;;;4.35;0.95;;;;;;;5.85;94.71;98620.91;10478290;28;20037;-77
2023/11/10 07:09:16;;;;;;;3.15;1.00;;;;;;;5.97;94.07;98615.44;10482614;28;20049;-77
2023/11/10 07:14:20;;;;;;;5.80;1.30;;;;;;;6.21;93.79;98613.22;10479630;28;20045;-77
2023/11/10 07:19:25;;;;;;;1.38;1.02;;;;;;;6.18;94.90;98614.34;10502878;28;20144;-77
2023/11/10 07:24:28;;;;;;;2.55;1.65;;;;;;;6.14;93.96;98614.75;10503545;28;20095;-77
2023/11/10 07:29:33;;;;;;;5.90;1.80;;;;;;;6.32;92.36;98622.91;10489751;28;20036;-77
2023/11/10 07:34:36;;;;;;;6.22;1.17;;;;;;;6.27;92.22;98631.31;10485729;28;20040;-77
2023/11/10 07:39:41;;;;;;;4.05;1.50;;;;;;;6.36;91.59;98625.16;10468924;28;20053;-77
2023/11/10 07:44:46;;;;;;;4.00;1.10;;;;;;;6.26;90.98;98632.31;10481387;28;20106;-77
2023/11/10 07:49:49;;;;;;;2.75;1.10;;;;;;;6.55;89.56;98634.97;10481347;28;20492;-76
2023/11/10 07:54:51;;;;;;;3.22;1.02;;;;;;;6.40;88.99;98631.06;10482922;28;20062;-78
2023/11/10 08:00:03;;;;;;;2.67;0.80;;;;;;;6.14;89.17;98636.94;10482943;28;20419;-76
2023/11/10 08:05:14;;;;;;;2.55;1.08;;;;;;;6.66;87.41;98623.31;10469821;28;20189;-76
2023/11/10 08:10:17;;;;;;;7.07;1.42;;;;;;;6.70;86.75;98631.88;10473983;28;20047;-77
2023/11/10 08:15:21;;;;;;;4.35;1.10;;;;;;;6.87;86.56;98627.66;10475703;28;20041;-77
2023/11/10 08:20:26;;;;;;;5.15;1.33;;;;;;;6.70;86.80;98645.22;10481254;28;20056;-76
2023/11/10 08:25:29;;;;;;;3.22;0.95;;;;;;;6.78;85.51;98651.53;10478363;28;20098;-77
2023/11/10 08:30:33;;;;;;;5.10;1.13;;;;;;;6.77;85.89;98652.50;10474107;28;20048;-77
2023/11/10 08:35:37;;;;;;;4.78;1.23;;;;;;;6.82;85.48;98660.09;10471883;28;20059;-77
2023/11/10 08:40:40;;;;;;;4.03;1.00;;;;;;;6.83;84.92;98657.28;10461479;28;20070;-76
2023/11/10 08:45:44;;;;;;;4.45;1.48;;;;;;;7.21;82.67;98668.91;10468187;28;20085;-77
2023/11/10 08:50:47;;;;;;;2.92;1.00;;;;;;;7.04;82.94;98650.94;10478786;28;20045;-77
2023/11/10 08:55:50;;;;;;;4.88;1.10;;;;;;;7.13;82.32;98660.78;10474051;28;20479;-77
2023/11/10 09:00:54;;;;;;;3.17;0.80;;;;;;;6.92;82.02;98668.97;10473789;28;20047;-76
2023/11/10 09:05:58;;;;;;;2.97;1.08;;;;;;;7.13;81.77;98662.59;10455198;28;20528;-77
2023/11/10 09:11:01;;;;;;;6.57;2.08;;;;;;;7.02;82.87;98675.13;10466564;28;20127;-77
2023/11/10 09:16:06;;;;;;;3.70;2.05;;;;;;;7.22;82.24;98662.56;10470360;28;20468;-76
2023/11/10 09:21:10;;;;;;;4.07;1.77;;;;;;;7.67;80.07;98669.03;10472799;28;20044;-77
2023/11/10 09:26:13;;;;;;;3.15;1.50;;;;;;;7.72;79.46;98669.44;10489655;28;20488;-77
2023/11/10 09:31:18;;;;;;;3.50;1.35;;;;;;;7.54;79.44;98665.84;10462945;28;20052;-76
2023/11/10 09:36:20;;;;;;;1.90;0.93;;;;;;;7.94;78.41;98662.84;10467594;28;20086;-77
2023/11/10 09:41:24;;;;;;;5.45;1.60;;;;;;;7.84;78.29;98659.38;10466725;28;20474;-77
2023/11/10 09:46:29;;;;;;;4.90;1.02;;;;;;;8.01;77.18;98671.09;10469910;28;20057;-77
2023/11/10 09:51:33;;;;;;;4.25;1.30;;;;;;;8.38;75.20;98665.66;10478958;28;20079;-77
2023/11/10 09:56:38;;;;;;;6.47;1.63;;;;;;;8.22;75.12;98652.09;10477418;28;20037;-77
2023/11/10 10:01:43;;;;;;;6.50;1.30;;;;;;;8.77;72.65;98652.81;10476172;28;20060;-77
2023/11/10 10:06:51;;;;;;;5.63;1.75;;;;;;;10.03;67.43;98650.53;10468411;28;20059;-77
2023/11/10 10:11:56;;;;;;;3.40;1.55;;;;;;;9.80;67.81;98649.44;10472722;28;20455;-77
2023/11/10 10:17:00;;;;;;;2.70;1.63;;;;;;;8.90;70.61;98651.59;10482443;28;20509;-77
2023/11/10 10:22:03;;;;;;;5.30;1.85;;;;;;;8.52;72.10;98648.25;10481993;28;20049;-77
2023/11/10 10:27:07;;;;;;;4.40;1.10;;;;;;;9.05;68.25;98634.81;10481311;28;20048;-77
2023/11/10 10:32:11;;;;;;;4.13;2.67;;;;;;;8.49;71.22;98649.41;10467237;28;20059;-77
2023/11/10 10:37:14;;;;;;;5.18;1.80;;;;;;;8.64;71.37;98639.00;10472708;28;20063;-77
2023/11/10 10:42:20;;;;;;;7.38;2.00;;;;;;;8.84;70.03;98637.00;10485849;28;20049;-77
2023/11/10 10:47:25;;;;;;;5.82;2.80;;;;;;;8.53;72.17;98647.25;10484284;28;20048;-78
2023/11/10 10:52:30;;;;;;;3.60;1.80;;;;;;;8.88;71.44;98643.69;10486874;28;20646;-78
2023/11/10 10:57:34;;;;;;;5.72;2.22;;;;;;;8.79;70.86;98637.44;10475211;28;20588;-78
2023/11/10 11:02:42;;;;;;;1.90;1.30;;;;;;;9.64;68.58;98623.38;10477106;28;20048;-77
2023/11/10 11:08:03;;;;;;;4.15;1.15;;;;;;;8.80;69.07;98622.22;10517487;28;20051;-77
2023/11/10 11:13:36;;;;;;;2.30;1.00;;;;;;;9.09;69.19;98629.13;10504751;28;20036;-78
2023/11/10 11:18:55;;;;;;;2.60;1.13;;;;;;;10.93;61.03;98614.91;10475742;28;20534;-76
2023/11/10 11:24:00;;;;;;;4.00;1.92;;;;;;;11.01;60.83;98598.78;10487977;28;20074;-78
2023/11/10 11:29:06;;;;;;;1.13;0.40;;;;;;;11.13;58.45;98592.03;10485022;28;20044;-78
2023/11/10 11:34:13;;;;;;;7.15;0.90;;;;;;;10.51;60.52;98594.44;10493495;28;20087;-77
2023/11/10 11:39:19;;;;;;;7.03;0.70;;;;;;;11.32;60.21;98598.88;10484780;28;20517;-77
2023/11/10 11:44:26;;;;;;;2.03;0.40;;;;;;;10.14;61.17;98598.41;10485480;28;20048;-77
2023/11/10 11:49:31;;;;;;;3.30;0.75;;;;;;;9.94;62.90;98608.63;10484530;28;20131;-77
2023/11/10 11:54:34;;;;;;;3.28;1.08;;;;;;;9.32;64.92;98605.31;10476463;28;20048;-78
2023/11/10 11:59:37;;;;;;;3.33;1.58;;;;;;;9.26;66.17;98596.91;10473531;28;20041;-78
2023/11/10 12:04:42;;;;;;;0.98;0.50;;;;;;;8.95;66.96;98598.41;10478862;28;20052;-76
2023/11/10 12:09:47;;;;;;;2.80;0.70;;;;;;;9.31;64.89;98599.13;10472378;28;20044;-77
2023/11/10 12:14:51;;;;;;;1.25;0.60;;;;;;;8.86;66.40;98586.81;10481160;28;20419;-76
2023/11/10 12:19:55;;;;;;;5.82;1.00;;;;;;;9.01;65.98;98587.91;10480781;28;20507;-76
2023/11/10 12:25:02;;;;;;;2.40;0.85;;;;;;;8.96;65.03;98592.03;10478956;28;20505;-76
2023/11/10 12:30:06;;;;;;;3.45;0.55;;;;;;;8.97;64.41;98583.88;10474261;28;20095;-78
2023/11/10 12:35:12;;;;;;;3.25;0.60;;;;;;;8.98;63.95;98580.19;10474640;28;20040;-77
2023/11/10 12:40:18;;;;;;;1.83;0.70;;;;;;;9.13;63.89;98592.97;10476023;28;20049;-78
2023/11/10 12:45:21;;;;;;;3.58;1.50;;;;;;;10.31;60.04;98570.63;10480138;28;20114;-76
2023/11/10 12:50:30;;;;;;;3.15;1.15;;;;;;;9.82;60.83;98575.88;10477062;28;20036;-77
2023/11/10 12:55:33;;;;;;;3.50;1.08;;;;;;;9.12;62.42;98567.22;10478579;28;20037;-76
2023/11/10 13:00:38;;;;;;;3.97;0.80;;;;;;;9.59;61.49;98569.41;10498336;28;20042;-76
2023/11/10 13:05:42;;;;;;;7.95;1.40;;;;;;;9.34;61.46;98563.13;10497858;28;20040;-78
2023/11/10 13:10:45;;;;;;;6.00;0.85;;;;;;;9.33;61.95;98566.81;10490493;28;20111;-76
2023/11/10 13:15:48;;;;;;;3.92;1.35;;;;;;;9.37;62.15;98570.84;10483913;28;20510;-78
2023/11/10 13:20:52;;;;;;;2.30;0.63;;;;;;;9.02;62.19;98561.94;10486838;28;20040;-78
2023/11/10 13:25:55;;;;;;;3.35;0.95;;;;;;;9.17;62.72;98562.22;10498684;28;20555;-78
2023/11/10 13:31:07;;;;;;;5.82;2.08;;;;;;;9.04;62.88;98560.78;10472223;28;20045;-78
2023/11/10 13:36:30;;;;;;;3.55;1.42;;;;;;;9.20;62.43;98562.72;10486470;28;20049;-77
2023/11/10 13:41:34;;;;;;;2.13;0.70;;;;;;;8.98;63.57;98552.56;10491209;28;20091;-78
2023/11/10 13:46:48;;;;;;;4.70;0.80;;;;;;;8.90;63.00;98557.88;10487471;28;20033;-78
2023/11/10 13:51:52;;;;;;;5.35;0.93;;;;;;;9.06;62.74;98558.81;10495465;28;20492;-78
2023/11/10 13:56:56;;;;;;;2.70;0.75;;;;;;;8.96;63.20;98566.09;10476476;28;20040;-77
2023/11/10 14:01:59;;;;;;;6.32;0.70;;;;;;;9.10;63.38;98562.00;10480762;28;20041;-78
2023/11/10 14:07:03;;;;;;;3.63;0.90;;;;;;;9.11;63.34;98561.00;10480790;28;20037;-78
2023/11/10 14:12:08;;;;;;;3.97;0.80;;;;;;;9.02;63.49;98565.50;10490360;28;20036;-77
2023/11/10 14:17:11;;;;;;;2.65;0.68;;;;;;;9.19;62.93;98557.53;10490914;28;20540;-78
2023/11/10 14:22:16;;;;;;;3.55;1.15;;;;;;;8.78;63.86;98571.53;10484591;28;20049;-78
2023/11/10 14:27:19;;;;;;;6.82;1.60;;;;;;;8.56;65.93;98570.19;10478777;28;20044;-77
2023/11/10 14:32:25;;;;;;;3.40;0.85;;;;;;;8.79;67.04;98577.72;10486623;28;20053;-78
2023/11/10 14:37:31;;;;;;;6.60;1.30;;;;;;;8.74;67.67;98582.69;10495062;28;20062;-78
2023/11/10 14:42:36;;;;;;;2.63;0.73;;;;;;;8.65;67.42;98589.00;10494094;28;20052;-77
2023/11/10 14:47:40;;;;;;;5.15;0.98;;;;;;;8.29;71.40;98600.53;10494770;28;20507;-77
2023/11/10 14:52:45;;;;;;;5.47;0.80;;;;;;;7.39;82.89;98615.56;10488998;28;20048;-77
2023/11/10 14:57:48;;;;;;;2.28;0.57;;;;;;;6.51;93.50;98628.25;10492654;28;20035;-77
2023/11/10 15:02:52;;;;;;;2.33;0.80;;;;;;;6.22;100.00;98636.22;10507794;28;20048;-78
2023/11/10 15:07:56;;;;;;;6.35;1.45;;;;;;;6.07;100.00;98642.97;10500523;28;20075;-78
2023/11/10 15:12:59;;;;;;;7.38;1.40;;;;;;;6.07;100.00;98640.28;10502179;28;20040;-78
2023/11/10 15:18:03;;;;;;;4.47;1.40;;;;;;;6.45;100.00;98631.47;10495058;28;20115;-78
2023/11/10 15:23:11;;;;;;;4.10;1.85;;;;;;;6.51;100.00;98630.06;10487058;28;20041;-78
2023/11/10 15:28:14;;;;;;;3.45;1.65;;;;;;;6.21;100.00;98625.72;10489976;28;20692;-79
2023/11/10 15:33:17;;;;;;;2.25;1.02;;;;;;;5.97;100.00;98618.09;10491090;28;20059;-79
2023/11/10 15:38:22;;;;;;;4.07;1.63;;;;;;;6.36;100.00;98614.50;10517004;28;20108;-78
2023/11/10 15:43:24;;;;;;;3.90;1.10;;;;;;;6.14;100.00;98620.09;10507950;28;20049;-78
2023/11/10 15:48:28;;;;;;;8.20;1.85;;;;;;;6.10;100.00;98616.88;10493527;28;20040;-79
2023/11/10 15:53:46;;;;;;;3.50;1.13;;;;;;;6.48;100.00;98611.69;10494113;28;20100;-78
2023/11/10 15:58:49;;;;;;;4.15;1.10;;;;;;;6.37;100.00;98608.19;10479133;28;20040;-78
2023/11/10 16:03:52;;;;;;;5.97;1.42;;;;;;;6.46;100.00;98611.81;10486544;28;20040;-77
2023/11/10 16:08:57;;;;;;;6.28;2.40;;;;;;;6.56;100.00;98609.16;10481590;28;20036;-78
2023/11/10 16:14:00;;;;;;;8.85;1.98;;;;;;;6.55;100.00;98610.13;10491807;28;20419;-78
2023/11/10 16:19:04;;;;;;;3.78;1.95;;;;;;;6.62;100.00;98606.75;10480092;28;20411;-78
2023/11/10 16:24:09;;;;;;;2.75;1.23;;;;;;;6.58;98.95;98620.50;10466905;28;20139;-78
2023/11/10 16:29:13;;;;;;;8.23;1.88;;;;;;;6.76;98.58;98624.16;10481188;28;20044;-78
2023/11/10 16:34:16;;;;;;;7.40;1.80;;;;;;;6.51;98.32;98635.41;10482086;28;20045;-77
2023/11/10 16:39:21;;;;;;;4.03;1.10;;;;;;;6.55;98.21;98647.47;10487960;28;20049;-77
2023/11/10 16:44:24;;;;;;;1.98;1.50;;;;;;;6.24;98.76;98639.59;10479509;28;20107;-78
2023/11/10 16:49:28;;;;;;;10.23;1.77;;;;;;;6.54;98.89;98640.47;10469473;28;20087;-77
2023/11/10 16:54:34;;;;;;;3.83;2.20;;;;;;;6.43;100.00;98649.44;10472871;28;20051;-78
2023/11/10 16:59:38;;;;;;;12.48;3.03;;;;;;;6.23;100.00;98653.09;10489681;28;20571;-78
2023/11/10 17:04:42;;;;;;;12.07;6.22;;;;;;;6.45;100.00;98649.31;10492643;28;20072;-77
2023/11/10 17:09:46;;;;;;;8.32;2.00;;;;;;;6.47;100.00;98648.16;10492252;28;20044;-77
2023/11/10 17:14:50;;;;;;;6.22;2.60;;;;;;;6.29;100.00;98641.88;10470269;28;20087;-77
2023/11/10 17:19:53;;;;;;;6.65;1.77;;;;;;;6.33;100.00;98646.75;10461084;28;20110;-77
2023/11/10 17:24:58;;;;;;;9.20;2.78;;;;;;;6.51;100.00;98638.06;10472540;28;20056;-77
2023/11/10 17:30:01;;;;;;;10.43;2.65;;;;;;;6.31;100.00;98631.91;10474770;28;20037;-77
2023/11/10 17:35:06;;;;;;;5.45;1.88;;;;;;;6.42;100.00;98646.91;10484348;28;20139;-78
2023/11/10 17:40:11;;;;;;;6.13;2.10;;;;;;;6.46;100.00;98640.31;10492155;28;20462;-77
2023/11/10 17:45:17;;;;;;;4.15;2.63;;;;;;;6.48;100.00;98646.38;10480384;28;20053;-77
2023/11/10 17:50:21;;;;;;;6.68;2.28;;;;;;;6.51;100.00;98643.41;10476526;28;20068;-77
2023/11/10 17:55:25;;;;;;;7.88;3.40;;;;;;;6.62;100.00;98646.78;10477488;28;20627;-77
2023/11/10 18:00:29;;;;;;;4.78;2.88;;;;;;;6.61;100.00;98636.25;10485383;28;20044;-78
2023/11/10 18:05:32;;;;;;;8.13;4.03;;;;;;;6.55;100.00;98639.47;10479353;28;20064;-77
2023/11/10 18:10:37;;;;;;;6.50;3.20;;;;;;;6.63;100.00;98640.44;10493997;28;20040;-78
2023/11/10 18:15:40;;;;;;;8.82;3.63;;;;;;;6.69;100.00;98643.53;10483558;28;20561;-77
2023/11/10 18:20:46;;;;;;;6.75;3.25;;;;;;;6.60;100.00;98637.22;10493103;28;20065;-77
2023/11/10 18:25:51;;;;;;;10.45;4.05;;;;;;;6.63;100.00;98642.28;10499277;28;20064;-78
2023/11/10 18:30:54;;;;;;;10.85;2.40;;;;;;;6.62;100.00;98640.59;10494225;28;20041;-77
2023/11/10 18:35:58;;;;;;;8.32;3.33;;;;;;;6.66;100.00;98633.13;10485730;28;20041;-78
2023/11/10 18:41:02;;;;;;;5.80;3.17;;;;;;;6.69;100.00;98636.38;10481774;28;20048;-78
2023/11/10 18:46:10;;;;;;;9.20;4.03;;;;;;;6.73;100.00;98636.94;10497934;28;20117;-78
2023/11/10 18:51:13;;;;;;;5.10;3.38;;;;;;;6.69;100.00;98635.53;10485987;28;20110;-77
2023/11/10 18:56:20;;;;;;;5.53;2.38;;;;;;;6.70;100.00;98635.41;10490609;28;20121;-77
2023/11/10 19:01:23;;;;;;;7.75;3.70;;;;;;;6.65;100.00;98639.47;10489646;28;20043;-77
2023/11/10 19:06:27;;;;;;;4.90;2.67;;;;;;;6.68;100.00;98636.53;10490128;28;20098;-78
2023/11/10 19:11:32;;;;;;;6.50;2.45;;;;;;;6.61;100.00;98630.91;10486320;28;20131;-77
2023/11/10 19:16:35;;;;;;;6.43;2.70;;;;;;;6.58;100.00;98636.50;10487324;28;20087;-77
2023/11/10 19:21:39;;;;;;;4.55;2.15;;;;;;;6.59;100.00;98628.38;10491095;28;20040;-77
2023/11/10 19:26:44;;;;;;;4.50;2.58;;;;;;;6.58;100.00;98634.72;10489918;28;20041;-77
2023/11/10 19:31:49;;;;;;;4.57;2.20;;;;;;;6.72;100.00;98619.22;10491654;28;20151;-77
2023/11/10 19:36:55;;;;;;;6.97;2.72;;;;;;;6.78;100.00;98640.03;10495020;28;20075;-78
2023/11/10 19:42:02;;;;;;;4.03;3.13;;;;;;;6.77;100.00;98641.81;10484385;28;20053;-77
2023/11/10 19:47:06;;;;;;;6.60;3.50;;;;;;;6.72;100.00;98638.78;10471490;28;20114;-77
2023/11/10 19:52:12;;;;;;;5.22;3.20;;;;;;;6.75;100.00;98638.47;10487380;28;20041;-77
2023/11/10 19:57:21;;;;;;;12.15;3.95;;;;;;;6.71;100.00;98638.91;10489078;28;20098;-77
2023/11/10 20:02:25;;;;;;;8.88;3.10;;;;;;;6.75;100.00;98642.97;10491519;28;20571;-78
2023/11/10 20:07:28;;;;;;;9.07;3.08;;;;;;;6.76;100.00;98639.31;10494485;28;20090;-78
2023/11/10 20:12:33;;;;;;;13.82;3.88;;;;;;;6.76;100.00;98629.47;10494131;28;20044;-79
2023/11/10 20:17:36;;;;;;;8.65;3.28;;;;;;;6.74;100.00;98636.78;10486738;28;20044;-76
2023/11/10 20:22:39;;;;;;;6.93;3.15;;;;;;;6.79;100.00;98642.53;10491329;28;20048;-78
2023/11/10 20:27:44;;;;;;;12.77;3.15;;;;;;;6.77;100.00;98647.16;10495807;28;20110;-78
2023/11/10 20:32:47;;;;;;;6.22;2.85;;;;;;;6.70;100.00;98643.41;10491099;28;20044;-76
2023/11/10 20:37:51;;;;;;;4.30;2.45;;;;;;;6.74;100.00;98644.78;10489864;28;20040;-77
2023/11/10 20:42:57;;;;;;;7.80;3.00;;;;;;;6.81;100.00;98642.41;10492808;28;20047;-78
2023/11/10 20:48:00;;;;;;;6.63;2.80;;;;;;;6.79;100.00;98647.88;10485672;28;20040;-77
2023/11/10 20:53:05;;;;;;;8.07;2.50;;;;;;;6.80;100.00;98646.91;10494191;28;20045;-77
2023/11/10 20:58:10;;;;;;;6.78;2.00;;;;;;;6.78;100.00;98646.19;10500597;28;20048;-77
2023/11/10 21:03:14;;;;;;;5.63;1.92;;;;;;;6.82;100.00;98639.56;10493441;28;20094;-77
2023/11/10 21:08:17;;;;;;;9.52;2.30;;;;;;;6.84;100.00;98650.13;10497003;28;20093;-77
2023/11/10 21:13:22;;;;;;;5.90;2.35;;;;;;;6.69;100.00;98639.06;10486922;28;20052;-77
2023/11/10 21:18:25;;;;;;;9.98;2.65;;;;;;;6.68;100.00;98641.84;10478199;28;20044;-77
2023/11/10 21:23:28;;;;;;;6.80;2.30;;;;;;;6.67;100.00;98641.03;10485610;28;20057;-76
2023/11/10 21:28:33;;;;;;;5.97;2.40;;;;;;;6.53;100.00;98636.13;10484469;28;20032;-76
2023/11/10 21:33:36;;;;;;;5.88;2.17;;;;;;;6.58;100.00;98624.03;10483764;28;20041;-78
2023/11/10 21:38:40;;;;;;;5.63;2.08;;;;;;;6.57;100.00;98632.16;10479220;28;20033;-77
2023/11/10 21:43:44;;;;;;;9.48;2.33;;;;;;;6.69;100.00;98616.84;10477960;28;20063;-78
2023/11/10 21:48:47;;;;;;;9.23;2.65;;;;;;;6.62;100.00;98616.59;10488923;28;20036;-77
2023/11/10 21:53:50;;;;;;;9.88;2.20;;;;;;;6.67;100.00;98605.50;10505955;28;20060;-78
2023/11/10 21:58:55;;;;;;;7.53;2.10;;;;;;;6.67;100.00;98608.16;10494676;28;20644;-76
2023/11/10 22:03:58;;;;;;;6.45;2.30;;;;;;;6.71;100.00;98601.53;10494780;28;20045;-78
2023/11/10 22:09:02;;;;;;;4.93;2.38;;;;;;;6.76;100.00;98591.28;10500648;28;20028;-78
2023/11/10 22:14:07;;;;;;;6.65;1.95;;;;;;;6.75;100.00;98593.13;10496946;28;20056;-78
2023/11/10 22:19:10;;;;;;;6.78;2.10;;;;;;;6.77;100.00;98598.28;10516459;28;20048;-77
2023/11/10 22:24:13;;;;;;;5.78;1.95;;;;;;;6.78;100.00;98590.16;10500714;28;20514;-77
2023/11/10 22:29:18;;;;;;;7.07;2.35;;;;;;;6.82;100.00;98599.53;10506057;28;20048;-77
2023/11/10 22:34:21;;;;;;;5.05;2.38;;;;;;;6.85;100.00;98588.56;10498927;28;20044;-77
2023/11/10 22:39:25;;;;;;;6.88;2.65;;;;;;;6.93;100.00;98587.06;10499689;28;20037;-78
2023/11/10 22:44:30;;;;;;;7.78;2.85;;;;;;;6.92;100.00;98582.72;10498736;28;20037;-78
2023/11/10 22:49:33;;;;;;;5.70;2.85;;;;;;;6.95;100.00;98588.59;10501826;28;20068;-78
2023/11/10 22:54:35;;;;;;;6.88;2.72;;;;;;;6.93;100.00;98597.75;10501153;28;20380;-77
2023/11/10 22:59:40;;;;;;;6.65;2.63;;;;;;;6.89;100.00;98599.84;10488456;28;20070;-76
2023/11/10 23:04:44;;;;;;;6.95;2.70;;;;;;;6.90;100.00;98592.69;10490261;28;20045;-78
2023/11/10 23:09:48;;;;;;;4.57;2.30;;;;;;;6.94;100.00;98596.75;10482812;28;20036;-77
2023/11/10 23:14:53;;;;;;;8.68;3.22;;;;;;;6.96;100.00;98592.94;10491772;28;20036;-77
2023/11/10 23:19:56;;;;;;;9.57;2.53;;;;;;;7.00;100.00;98598.84;10500671;28;20064;-77
2023/11/10 23:24:59;;;;;;;6.82;2.67;;;;;;;6.99;100.00;98599.81;10495998;28;20044;-77
2023/11/10 23:30:06;;;;;;;8.80;3.50;;;;;;;6.97;100.00;98591.13;10494284;28;20400;-77
2023/11/10 23:35:10;;;;;;;6.50;3.10;;;;;;;6.89;100.00;98599.84;10476390;28;20064;-77
2023/11/10 23:40:13;;;;;;;6.55;3.88;;;;;;;6.89;100.00;98599.03;10479925;28;20043;-77
2023/11/10 23:45:18;;;;;;;10.50;3.78;;;;;;;6.86;100.00;98589.44;10481967;28;20048;-77